Time;durP1;ratioP1;P1;durP2;ratioP2;P2;SDS_P1;SDS_P2;PMS_P1;PMS_P2;Temp;Humidity;BMP_temperature;BMP_pressure;BME280_temperature;BME280_humidity;BME280_pressure;Samples;Min_cycle;Max_cycle;Signal;HPM_P1;HPM_P2
2022/09/09 00:02:20;;;;;;;17.38;11.27;;;21.90;99.90;;;;;;5006781;28;20034;-76
2022/09/09 00:04:58;;;;;;;19.90;11.18;;;21.90;99.90;;;;;;5004771;28;20033;-77
2022/09/09 00:07:38;;;;;;;16.70;10.20;;;21.90;99.90;;;;;;5007037;28;20076;-77
2022/09/09 00:10:30;;;;;;;14.13;10.05;;;21.90;99.90;;;;;;5002548;28;20053;-76
2022/09/09 00:13:00;;;;;;;12.98;9.73;;;21.90;99.90;;;;;;5004821;28;20173;-75
2022/09/09 00:15:35;;;;;;;13.18;8.43;;;22.00;99.90;;;;;;5019306;28;20034;-76
2022/09/09 00:18:18;;;;;;;17.02;8.82;;;22.00;99.90;;;;;;5004345;28;20117;-76
2022/09/09 00:21:22;;;;;;;14.65;7.88;;;22.10;99.90;;;;;;5006374;28;20125;-76
2022/09/09 00:23:51;;;;;;;7.78;6.82;;;22.10;99.90;;;;;;4943624;28;20549;-77
2022/09/09 00:26:42;;;;;;;10.77;7.00;;;22.10;99.90;;;;;;4977785;28;20053;-78
2022/09/09 00:29:20;;;;;;;12.93;7.47;;;22.10;99.90;;;;;;4989474;28;20037;-77
2022/09/09 00:31:46;;;;;;;11.90;6.00;;;22.10;99.90;;;;;;5004677;28;20189;-75
2022/09/09 00:34:21;;;;;;;12.27;6.45;;;22.10;99.90;;;;;;4984426;28;20041;-74
2022/09/09 00:36:51;;;;;;;6.68;5.68;;;22.00;99.90;;;;;;5004674;28;20037;-76
2022/09/09 00:39:41;;;;;;;7.72;5.90;;;22.10;99.90;;;;;;4987304;28;20070;-77
2022/09/09 00:42:15;;;;;;;10.43;5.70;;;22.10;99.90;;;;;;5022416;28;20100;-77
2022/09/09 00:45:33;;;;;;;11.80;6.82;;;22.10;99.90;;;;;;5002814;28;20028;-77
2022/09/09 00:48:10;;;;;;;9.57;5.57;;;22.00;99.90;;;;;;5001613;28;20052;-76
2022/09/09 00:51:00;;;;;;;12.57;5.47;;;22.10;99.90;;;;;;4986977;28;20479;-76
2022/09/09 00:53:44;;;;;;;13.55;5.20;;;22.10;99.90;;;;;;5000889;28;20026;-76
2022/09/09 00:56:14;;;;;;;12.07;7.32;;;22.00;99.90;;;;;;5002535;28;20121;-76
2022/09/09 00:59:02;;;;;;;7.28;5.25;;;22.00;99.90;;;;;;5008958;28;20030;-77
2022/09/09 01:01:28;;;;;;;7.20;5.07;;;22.00;99.90;;;;;;5005854;28;20022;-75
2022/09/09 01:03:59;;;;;;;11.95;5.82;;;21.90;99.90;;;;;;5015898;28;20089;-77
2022/09/09 01:06:36;;;;;;;9.23;5.82;;;21.90;99.90;;;;;;5018774;28;20029;-76
2022/09/09 01:09:08;;;;;;;15.13;6.32;;;21.90;99.90;;;;;;5010840;28;20117;-77
2022/09/09 01:11:55;;;;;;;11.55;5.53;;;21.90;99.90;;;;;;5029119;28;20106;-77
2022/09/09 01:14:32;;;;;;;10.95;5.57;;;21.90;99.90;;;;;;4999315;28;20128;-77
2022/09/09 01:17:05;;;;;;;11.48;4.97;;;21.90;99.90;;;;;;5016208;28;20041;-77
2022/09/09 01:19:43;;;;;;;12.90;5.13;;;21.90;99.90;;;;;;5015143;28;20033;-76
2022/09/09 01:22:45;;;;;;;14.43;5.43;;;21.90;99.90;;;;;;4993980;28;20029;-77
2022/09/09 01:25:52;;;;;;;9.68;5.68;;;21.90;99.90;;;;;;5003965;28;20136;-77
2022/09/09 01:28:25;;;;;;;9.43;4.85;;;22.00;99.90;;;;;;4969692;28;20042;-78
2022/09/09 01:30:51;;;;;;;9.27;5.10;;;21.90;99.90;;;;;;5003094;28;20026;-77
2022/09/09 01:33:18;;;;;;;11.35;5.22;;;22.00;99.90;;;;;;4983582;28;20084;-76
2022/09/09 01:35:50;;;;;;;8.45;5.07;;;22.00;99.90;;;;;;4984583;28;20030;-75
2022/09/09 01:38:17;;;;;;;11.07;5.35;;;22.00;99.90;;;;;;4987489;28;20034;-77
2022/09/09 01:40:44;;;;;;;7.95;4.32;;;22.00;99.90;;;;;;5001890;28;20105;-76
2022/09/09 01:43:10;;;;;;;11.85;5.40;;;22.00;99.90;;;;;;5002612;28;20145;-76
2022/09/09 01:45:36;;;;;;;15.48;4.85;;;21.90;99.90;;;;;;5005976;28;20383;-76
2022/09/09 01:48:02;;;;;;;12.30;5.07;;;22.00;99.90;;;;;;5009441;28;20022;-77
2022/09/09 01:50:29;;;;;;;11.77;5.40;;;22.00;99.90;;;;;;5008712;28;20069;-75
2022/09/09 01:52:58;;;;;;;6.50;4.50;;;22.00;99.90;;;;;;5003476;28;20140;-78
2022/09/09 01:55:37;;;;;;;12.43;4.38;;;22.00;99.90;;;;;;4983465;28;20113;-77
2022/09/09 01:58:38;;;;;;;11.32;4.93;;;22.10;99.90;;;;;;4999072;28;20037;-76
2022/09/09 02:01:29;;;;;;;7.50;4.50;;;22.10;99.90;;;;;;4963214;28;20033;-77
2022/09/09 02:03:57;;;;;;;8.18;5.35;;;22.10;99.90;;;;;;5007894;28;20293;-77
2022/09/09 02:06:32;;;;;;;17.88;5.05;;;22.10;99.90;;;;;;5003149;28;20104;-76
2022/09/09 02:09:01;;;;;;;9.65;5.32;;;22.10;99.90;;;;;;4982813;28;20121;-75
2022/09/09 02:11:28;;;;;;;6.72;4.82;;;22.10;99.90;;;;;;5000636;28;20097;-75
2022/09/09 02:14:02;;;;;;;6.88;3.92;;;22.10;99.90;;;;;;5000409;28;20745;-77
2022/09/09 02:16:49;;;;;;;6.63;3.63;;;22.10;99.90;;;;;;5000847;28;20088;-74
2022/09/09 02:19:25;;;;;;;12.07;4.80;;;22.00;99.90;;;;;;5002430;28;20124;-76
2022/09/09 02:21:54;;;;;;;11.10;3.70;;;22.00;99.90;;;;;;5002294;28;20484;-74
2022/09/09 02:24:21;;;;;;;6.43;3.38;;;22.10;99.90;;;;;;5001487;28;20140;-76
2022/09/09 02:26:52;;;;;;;5.18;3.35;;;22.00;99.90;;;;;;5002512;28;20022;-76
2022/09/09 02:29:41;;;;;;;12.50;4.07;;;22.10;99.90;;;;;;5005585;28;20076;-75
2022/09/09 02:32:11;;;;;;;6.60;3.08;;;22.00;99.90;;;;;;5003292;28;20117;-76
2022/09/09 02:34:43;;;;;;;8.25;3.20;;;22.00;99.90;;;;;;5001753;28;20028;-75
2022/09/09 02:37:11;;;;;;;9.82;3.33;;;22.00;99.90;;;;;;5003171;28;20046;-78
2022/09/09 02:39:37;;;;;;;8.30;2.80;;;22.00;99.90;;;;;;5002671;28;20026;-77
2022/09/09 02:42:04;;;;;;;5.80;3.47;;;22.00;99.90;;;;;;5005569;28;20086;-76
2022/09/09 02:44:30;;;;;;;9.85;2.55;;;22.10;99.90;;;;;;5019303;28;20093;-76
2022/09/09 02:47:07;;;;;;;3.88;2.22;;;22.10;99.90;;;;;;5015509;28;20064;-75
2022/09/09 02:50:07;;;;;;;8.25;2.60;;;22.10;99.90;;;;;;5006049;28;20022;-76
2022/09/09 02:52:41;;;;;;;2.53;2.10;;;22.10;99.90;;;;;;5008867;28;20038;-74
2022/09/09 02:55:17;;;;;;;5.20;2.58;;;22.10;99.90;;;;;;5005562;28;20033;-74
2022/09/09 02:57:47;;;;;;;6.70;2.38;;;22.10;99.90;;;;;;5003963;28;20099;-75
2022/09/09 03:00:13;;;;;;;8.13;2.58;;;22.00;99.90;;;;;;4984971;28;20117;-74
2022/09/09 03:02:39;;;;;;;2.97;2.47;;;22.00;99.90;;;;;;4984585;28;20594;-76
2022/09/09 03:05:06;;;;;;;3.35;2.30;;;22.00;99.90;;;;;;4999925;28;20112;-75
2022/09/09 03:07:33;;;;;;;5.05;1.85;;;22.00;99.90;;;;;;4987495;28;20128;-75
2022/09/09 03:09:59;;;;;;;2.20;1.77;;;22.00;99.90;;;;;;4983033;28;20041;-76
2022/09/09 03:12:25;;;;;;;4.72;1.83;;;22.00;99.90;;;;;;4981206;28;20037;-76
2022/09/09 03:14:50;;;;;;;4.70;2.25;;;22.00;99.90;;;;;;4983978;28;20368;-76
2022/09/09 03:17:16;;;;;;;4.03;1.55;;;22.00;99.90;;;;;;5005953;28;20029;-75
2022/09/09 03:19:43;;;;;;;4.38;3.03;;;21.90;99.90;;;;;;4999654;28;20345;-75
2022/09/09 03:22:11;;;;;;;1.98;1.40;;;21.90;99.90;;;;;;4998244;28;20483;-76
2022/09/09 03:24:37;;;;;;;3.42;1.92;;;21.90;99.90;;;;;;5017334;28;20054;-75
2022/09/09 03:27:02;;;;;;;5.13;2.22;;;21.90;99.90;;;;;;5016296;28;20049;-75
2022/09/09 03:29:28;;;;;;;4.50;2.22;;;21.90;99.90;;;;;;5014403;28;20495;-75
2022/09/09 03:31:54;;;;;;;3.33;2.47;;;21.90;99.90;;;;;;5002923;28;20041;-76
2022/09/09 03:34:20;;;;;;;1.85;1.38;;;21.90;99.90;;;;;;5002765;28;20037;-75
2022/09/09 03:36:48;;;;;;;4.85;2.13;;;21.90;99.90;;;;;;4988104;28;20102;-75
2022/09/09 03:39:14;;;;;;;4.93;1.38;;;21.90;99.90;;;;;;5002640;28;20502;-76
2022/09/09 03:41:39;;;;;;;3.45;1.95;;;21.90;99.90;;;;;;5000477;28;20026;-75
2022/09/09 03:44:05;;;;;;;3.03;2.05;;;21.90;99.90;;;;;;4984584;28;20488;-74
2022/09/09 03:46:31;;;;;;;4.70;1.73;;;21.90;99.90;;;;;;5003081;28;20030;-75
2022/09/09 03:48:58;;;;;;;5.53;2.72;;;21.80;99.90;;;;;;4985047;28;20511;-74
2022/09/09 03:51:24;;;;;;;3.83;1.70;;;21.80;99.90;;;;;;5002460;28;20402;-74
2022/09/09 03:53:50;;;;;;;3.80;2.22;;;21.70;99.90;;;;;;5002633;28;20463;-75
2022/09/09 03:56:16;;;;;;;5.68;2.47;;;21.70;99.90;;;;;;5001869;28;20057;-75
2022/09/09 03:58:42;;;;;;;2.83;2.13;;;21.70;99.90;;;;;;4984170;28;20459;-75
2022/09/09 04:01:17;;;;;;;6.07;2.25;;;21.70;99.90;;;;;;5004670;28;20017;-75
2022/09/09 04:03:44;;;;;;;3.70;2.45;;;21.70;99.90;;;;;;5001624;28;20108;-75
2022/09/09 04:06:14;;;;;;;4.50;2.20;;;21.60;99.90;;;;;;5005346;28;20076;-74
2022/09/09 04:08:41;;;;;;;4.07;2.42;;;21.50;99.90;;;;;;5012873;28;20108;-75
2022/09/09 04:11:07;;;;;;;4.13;2.08;;;21.50;99.90;;;;;;5014474;28;20547;-75
2022/09/09 04:13:35;;;;;;;5.57;2.67;;;21.50;99.90;;;;;;5020376;28;20113;-75
2022/09/09 04:16:03;;;;;;;12.25;3.08;;;21.50;99.90;;;;;;5022284;28;20033;-75
2022/09/09 04:18:30;;;;;;;7.70;3.03;;;21.40;99.90;;;;;;4994923;28;20060;-74
2022/09/09 04:20:57;;;;;;;8.20;2.92;;;21.40;99.90;;;;;;5002867;28;20109;-76
2022/09/09 04:23:25;;;;;;;9.60;3.72;;;21.40;99.90;;;;;;4987076;28;20030;-75
2022/09/09 04:25:52;;;;;;;6.68;2.80;;;21.40;99.90;;;;;;4995795;28;20029;-74
2022/09/09 04:28:20;;;;;;;14.55;3.45;;;21.40;99.90;;;;;;5022950;28;20070;-75
2022/09/09 04:30:46;;;;;;;6.90;3.08;;;21.40;99.90;;;;;;5022205;28;20196;-74
2022/09/09 04:33:13;;;;;;;6.20;2.97;;;21.40;99.90;;;;;;4997680;28;20085;-74
2022/09/09 04:35:43;;;;;;;7.78;3.30;;;21.40;99.90;;;;;;5020488;28;20101;-74
2022/09/09 04:38:09;;;;;;;11.30;3.80;;;21.40;99.90;;;;;;5017282;28;20547;-74
2022/09/09 04:40:35;;;;;;;14.02;4.15;;;21.40;99.90;;;;;;5019663;28;20037;-75
2022/09/09 04:43:05;;;;;;;11.43;3.60;;;21.40;99.90;;;;;;4985508;28;20121;-75
2022/09/09 04:45:31;;;;;;;10.15;4.50;;;21.40;99.90;;;;;;5003143;28;20021;-75
2022/09/09 04:47:57;;;;;;;6.38;3.75;;;21.40;99.90;;;;;;4999744;28;20126;-74
2022/09/09 04:50:23;;;;;;;24.17;4.18;;;21.40;99.90;;;;;;5005408;28;20093;-76
2022/09/09 04:52:49;;;;;;;18.70;5.28;;;21.50;99.90;;;;;;4994584;28;20064;-74
2022/09/09 04:55:15;;;;;;;15.80;4.22;;;21.50;99.90;;;;;;5005690;28;20033;-75
2022/09/09 04:57:41;;;;;;;8.80;3.70;;;21.50;99.90;;;;;;5010384;28;20022;-76
2022/09/09 05:00:07;;;;;;;13.30;4.22;;;21.50;99.90;;;;;;5006905;28;20499;-75
2022/09/09 05:02:38;;;;;;;10.82;3.70;;;21.50;99.90;;;;;;5005780;28;20033;-76
2022/09/09 05:05:04;;;;;;;9.25;4.63;;;21.60;99.90;;;;;;5005581;28;20040;-77
2022/09/09 05:07:31;;;;;;;20.65;4.15;;;21.60;99.90;;;;;;5010302;28;20021;-76
2022/09/09 05:09:57;;;;;;;12.77;3.53;;;21.60;99.90;;;;;;5007743;28;20121;-75
2022/09/09 05:12:25;;;;;;;10.40;4.22;;;21.60;99.90;;;;;;5006656;28;20132;-76
2022/09/09 05:14:53;;;;;;;6.85;4.28;;;21.70;99.90;;;;;;4982181;28;20026;-75
2022/09/09 05:17:19;;;;;;;7.00;4.30;;;21.70;99.90;;;;;;5002843;28;20153;-77
2022/09/09 05:19:45;;;;;;;9.02;4.05;;;21.70;99.90;;;;;;4982813;28;20500;-77
2022/09/09 05:22:11;;;;;;;4.55;3.75;;;21.60;99.90;;;;;;5003555;28;20026;-75
2022/09/09 05:24:38;;;;;;;8.70;4.15;;;21.60;99.90;;;;;;4991008;28;20023;-77
2022/09/09 05:27:05;;;;;;;8.80;4.22;;;21.70;99.90;;;;;;5001872;28;20557;-75
2022/09/09 05:29:33;;;;;;;8.00;3.97;;;21.70;99.90;;;;;;5001719;28;20032;-75
2022/09/09 05:31:59;;;;;;;11.05;4.43;;;21.70;99.90;;;;;;5003880;28;20118;-75
2022/09/09 05:34:25;;;;;;;9.80;4.97;;;21.80;99.90;;;;;;5003048;28;20046;-75
2022/09/09 05:36:52;;;;;;;9.90;4.82;;;21.90;99.90;;;;;;4989432;28;20033;-76
2022/09/09 05:39:18;;;;;;;6.00;4.15;;;21.90;99.90;;;;;;5013372;28;20106;-76
2022/09/09 05:41:44;;;;;;;5.95;4.70;;;22.00;99.90;;;;;;5010149;28;20024;-76
2022/09/09 05:44:10;;;;;;;10.05;4.13;;;22.00;99.90;;;;;;5019190;28;20029;-77
2022/09/09 05:46:36;;;;;;;11.52;4.50;;;22.00;99.90;;;;;;4982280;28;20103;-76
2022/09/09 05:49:02;;;;;;;6.50;3.97;;;22.10;99.90;;;;;;5006360;28;20062;-76
2022/09/09 05:51:32;;;;;;;7.82;4.25;;;22.20;99.90;;;;;;5007466;28;20088;-75
2022/09/09 05:54:00;;;;;;;6.53;4.00;;;22.20;99.90;;;;;;4993221;28;20388;-76
2022/09/09 05:56:28;;;;;;;6.50;3.67;;;22.30;99.90;;;;;;5005621;28;20503;-76
2022/09/09 05:58:55;;;;;;;5.88;3.90;;;22.40;99.90;;;;;;5005600;28;20116;-75
2022/09/09 06:01:54;;;;;;;8.68;4.80;;;22.50;99.90;;;;;;5008253;28;20500;-78
2022/09/09 06:04:57;;;;;;;6.32;3.55;;;22.50;99.90;;;;;;4996283;28;20061;-76
2022/09/09 06:08:07;;;;;;;;;;;;;;;;;;;;;
2022/09/09 06:10:59;;;;;;;6.23;3.97;;;22.60;99.90;;;;;;5015473;28;20052;-78
2022/09/09 06:14:00;;;;;;;14.15;4.20;;;22.50;99.90;;;;;;5016527;28;20257;-78
2022/09/09 06:17:07;;;;;;;;;;;;;;;;;;;;;
2022/09/09 06:19:35;;;;;;;11.23;3.50;;;22.60;99.90;;;;;;4997598;28;20090;-78
2022/09/09 06:22:01;;;;;;;10.82;3.13;;;22.70;99.90;;;;;;4994883;28;20046;-76
2022/09/09 06:24:44;;;;;;;5.03;3.20;;;22.80;99.90;;;;;;4994604;28;20042;-78
2022/09/09 06:27:24;;;;;;;12.60;3.67;;;22.90;99.90;;;;;;4977797;28;20026;-79
2022/09/09 06:29:53;;;;;;;7.72;4.57;;;23.00;99.90;;;;;;5000538;28;20036;-79
2022/09/09 06:32:24;;;;;;;10.32;4.03;;;23.10;99.90;;;;;;4996053;28;20034;-75
2022/09/09 06:34:50;;;;;;;11.23;4.53;;;23.20;99.90;;;;;;4993464;28;20065;-75
2022/09/09 06:37:16;;;;;;;6.57;3.88;;;23.40;99.90;;;;;;5003094;28;20482;-76
2022/09/09 06:39:42;;;;;;;9.82;4.82;;;23.40;99.90;;;;;;4998878;28;20025;-76
2022/09/09 06:42:25;;;;;;;9.90;4.20;;;23.40;99.90;;;;;;5004433;28;20032;-77
2022/09/09 06:44:52;;;;;;;8.73;3.50;;;23.50;99.90;;;;;;4990075;28;20085;-75
2022/09/09 06:47:17;;;;;;;11.15;3.35;;;23.40;99.90;;;;;;4991710;28;20052;-67
2022/09/09 06:49:43;;;;;;;13.65;2.97;;;23.40;99.90;;;;;;5009858;28;20496;-69
2022/09/09 06:52:09;;;;;;;7.28;3.20;;;23.40;99.90;;;;;;5008693;28;20500;-69
2022/09/09 06:54:37;;;;;;;14.00;4.78;;;23.40;99.90;;;;;;5007608;28;20563;-67
2022/09/09 06:57:09;;;;;;;6.55;3.70;;;23.50;99.90;;;;;;4997684;28;20068;-68
2022/09/09 06:59:34;;;;;;;8.10;3.63;;;23.50;99.90;;;;;;5015330;28;20037;-68
2022/09/09 07:02:01;;;;;;;7.93;3.88;;;23.60;99.90;;;;;;4991541;28;20018;-69
2022/09/09 07:04:26;;;;;;;11.68;4.07;;;23.70;99.90;;;;;;5007674;28;20120;-68
2022/09/09 07:06:52;;;;;;;9.95;4.40;;;23.80;99.90;;;;;;4992019;28;20030;-69
2022/09/09 07:09:18;;;;;;;10.38;4.05;;;23.80;99.90;;;;;;5016854;28;20037;-69
2022/09/09 07:11:47;;;;;;;10.70;3.75;;;23.80;99.90;;;;;;4988993;28;20463;-69
2022/09/09 07:14:13;;;;;;;5.82;3.20;;;23.90;99.90;;;;;;5007823;28;20034;-69
2022/09/09 07:16:41;;;;;;;8.98;4.28;;;24.00;99.90;;;;;;5010582;28;20026;-68
2022/09/09 07:19:06;;;;;;;12.25;4.72;;;24.10;99.90;;;;;;5016640;28;20508;-69
2022/09/09 07:21:33;;;;;;;9.32;3.45;;;24.20;99.90;;;;;;5018216;28;20103;-68
2022/09/09 07:23:59;;;;;;;5.25;3.53;;;24.30;99.90;;;;;;5014470;28;20022;-68
2022/09/09 07:26:30;;;;;;;7.95;3.25;;;24.40;99.90;;;;;;5016560;28;20033;-68
2022/09/09 07:28:57;;;;;;;10.90;3.67;;;24.60;99.90;;;;;;5022652;28;20037;-68
2022/09/09 07:31:30;;;;;;;11.10;4.05;;;24.60;99.90;;;;;;5018567;28;20411;-68
2022/09/09 07:34:05;;;;;;;11.57;3.65;;;24.90;99.90;;;;;;5021395;28;20038;-69
2022/09/09 07:36:39;;;;;;;11.50;3.35;;;25.10;99.90;;;;;;5012753;28;20032;-67
2022/09/09 07:39:08;;;;;;;9.98;2.92;;;25.20;99.90;;;;;;5026419;28;20029;-69
2022/09/09 07:41:42;;;;;;;5.57;2.72;;;25.20;99.90;;;;;;5001825;28;20032;-68
2022/09/09 07:44:16;;;;;;;4.55;3.15;;;25.30;99.90;;;;;;5003864;28;20307;-68
2022/09/09 07:46:44;;;;;;;8.25;3.28;;;25.40;99.90;;;;;;5017462;28;20526;-69
2022/09/09 07:49:11;;;;;;;7.20;3.28;;;25.30;99.90;;;;;;5004296;28;20121;-68
2022/09/09 07:51:41;;;;;;;10.77;3.25;;;25.40;99.90;;;;;;5006784;28;20102;-69
2022/09/09 07:54:12;;;;;;;11.67;3.80;;;25.60;99.90;;;;;;5011075;28;20025;-68
2022/09/09 07:56:40;;;;;;;7.60;3.05;;;25.70;99.90;;;;;;5023564;28;20030;-69
2022/09/09 07:59:06;;;;;;;11.70;4.00;;;25.80;99.90;;;;;;5015616;28;20049;-68
2022/09/09 08:01:37;;;;;;;5.32;2.90;;;25.90;99.90;;;;;;4995742;28;20029;-69
2022/09/09 08:04:06;;;;;;;8.48;3.13;;;26.00;99.90;;;;;;5013807;28;20022;-67
2022/09/09 08:06:37;;;;;;;7.05;3.58;;;25.90;99.90;;;;;;5032426;28;20018;-69
2022/09/09 08:09:04;;;;;;;11.68;3.25;;;25.80;99.90;;;;;;5013856;28;20058;-68
2022/09/09 08:11:30;;;;;;;8.30;5.03;;;25.80;99.90;;;;;;4994853;28;20399;-67
2022/09/09 08:13:56;;;;;;;11.85;4.93;;;25.80;99.90;;;;;;5001808;28;20120;-68
2022/09/09 08:16:29;;;;;;;10.70;4.07;;;25.80;99.90;;;;;;5026602;28;20376;-68
2022/09/09 08:18:55;;;;;;;7.95;4.72;;;25.70;99.90;;;;;;5008678;28;20026;-68
2022/09/09 08:21:24;;;;;;;9.50;4.35;;;25.70;99.90;;;;;;4992758;28;20365;-67
2022/09/09 08:23:53;;;;;;;5.68;3.33;;;25.80;99.90;;;;;;4976770;28;20476;-68
2022/09/09 08:26:27;;;;;;;10.27;4.13;;;25.80;99.90;;;;;;4994191;28;20497;-68
2022/09/09 08:28:56;;;;;;;10.18;4.57;;;25.90;99.90;;;;;;4998191;28;20033;-70
2022/09/09 08:31:31;;;;;;;11.23;4.30;;;25.90;99.90;;;;;;5013744;28;20054;-69
2022/09/09 08:34:04;;;;;;;11.00;4.32;;;25.80;99.90;;;;;;4996244;28;20033;-68
2022/09/09 08:36:33;;;;;;;8.80;4.18;;;25.80;99.90;;;;;;5013866;28;20032;-68
2022/09/09 08:38:59;;;;;;;13.32;5.22;;;25.90;99.90;;;;;;5012652;28;20022;-70
2022/09/09 08:42:02;;;;;;;7.53;4.80;;;26.10;99.90;;;;;;5013334;28;20066;-68
2022/09/09 08:44:34;;;;;;;10.88;5.72;;;26.20;99.90;;;;;;4995826;28;20026;-69
2022/09/09 08:47:38;;;;;;;9.88;4.15;;;26.10;99.90;;;;;;5013703;28;20379;-67
2022/09/09 08:50:27;;;;;;;7.30;4.93;;;26.30;99.90;;;;;;5011763;28;20033;-69
2022/09/09 08:53:16;;;;;;;10.05;3.78;;;26.70;99.90;;;;;;5013348;28;20044;-69
2022/09/09 08:56:01;;;;;;;12.27;4.63;;;26.90;99.90;;;;;;5013567;28;20025;-68
2022/09/09 08:58:31;;;;;;;14.75;4.45;;;26.70;99.90;;;;;;5012692;28;20022;-68
2022/09/09 09:01:08;;;;;;;12.38;4.75;;;26.60;99.90;;;;;;5012040;28;20128;-69
2022/09/09 09:03:53;;;;;;;7.85;4.53;;;26.50;99.90;;;;;;5013063;28;20025;-69
2022/09/09 09:06:30;;;;;;;11.20;4.55;;;26.40;99.90;;;;;;5013031;28;20053;-67
2022/09/09 09:08:55;;;;;;;12.10;5.15;;;26.10;99.90;;;;;;4993982;28;20030;-68
2022/09/09 09:11:22;;;;;;;17.48;4.53;;;26.00;99.90;;;;;;5010730;28;20026;-68
2022/09/09 09:14:02;;;;;;;8.40;3.60;;;25.90;99.90;;;;;;4995503;28;20077;-67
2022/09/09 09:16:36;;;;;;;9.25;4.07;;;25.80;99.90;;;;;;4995214;28;20029;-68
2022/09/09 09:19:02;;;;;;;8.93;4.60;;;25.70;99.90;;;;;;5010470;28;20038;-68
2022/09/09 09:21:43;;;;;;;5.63;3.60;;;25.60;99.90;;;;;;4995443;28;20121;-67
2022/09/09 09:24:32;;;;;;;10.38;4.30;;;25.70;99.90;;;;;;5013082;28;20048;-68
2022/09/09 09:27:00;;;;;;;23.10;6.22;;;25.50;99.90;;;;;;5012997;28;20066;-68
2022/09/09 09:29:27;;;;;;;12.63;4.57;;;25.10;99.90;;;;;;5011832;28;20030;-69
2022/09/09 09:31:55;;;;;;;10.43;5.25;;;24.90;99.90;;;;;;5012504;28;20334;-68
2022/09/09 09:34:23;;;;;;;49.72;8.88;;;24.60;99.90;;;;;;4994816;28;20392;-70
2022/09/09 09:36:57;;;;;;;36.88;8.50;;;23.90;99.90;;;;;;5013144;28;20474;-69
2022/09/09 09:39:31;;;;;;;41.95;6.93;;;21.90;99.90;;;;;;5011143;28;20030;-70
2022/09/09 09:42:01;;;;;;;54.80;9.52;;;20.30;99.90;;;;;;5012869;28;20029;-70
2022/09/09 09:44:31;;;;;;;56.30;10.55;;;19.40;99.90;;;;;;5013097;28;20032;-70
2022/09/09 09:47:15;;;;;;;40.30;5.95;;;18.70;99.90;;;;;;5013981;28;20091;-70
2022/09/09 09:50:02;;;;;;;45.55;5.28;;;18.10;99.90;;;;;;5013986;28;20033;-71
2022/09/09 09:52:30;;;;;;;11.32;3.55;;;17.70;99.90;;;;;;5008000;28;20021;-70
2022/09/09 09:54:59;;;;;;;27.27;5.20;;;17.50;99.90;;;;;;5013435;28;20045;-71
2022/09/09 09:57:31;;;;;;;11.82;6.38;;;17.60;99.90;;;;;;5014540;28;20447;-70
2022/09/09 10:00:18;;;;;;;4.38;3.67;;;17.80;99.90;;;;;;5000644;28;20367;-70
2022/09/09 10:02:45;;;;;;;8.27;4.78;;;18.00;99.90;;;;;;5004430;28;20101;-70
2022/09/09 10:05:29;;;;;;;6.50;3.80;;;18.10;99.90;;;;;;5022653;28;20016;-70
2022/09/09 10:08:05;;;;;;;5.47;3.47;;;18.00;99.90;;;;;;4997481;28;20514;-69
2022/09/09 10:10:55;;;;;;;2.60;2.40;;;18.00;99.90;;;;;;5010426;28;20449;-69
2022/09/09 10:13:44;;;;;;;3.63;2.60;;;18.00;99.90;;;;;;5012106;28;20235;-68
2022/09/09 10:16:39;;;;;;;5.93;3.30;;;18.30;99.90;;;;;;4993867;28;20026;-69
2022/09/09 10:19:41;;;;;;;5.40;2.70;;;18.80;99.90;;;;;;5010388;28;20462;-68
2022/09/09 10:22:16;;;;;;;7.43;3.35;;;19.00;99.90;;;;;;5010560;28;20053;-69
2022/09/09 10:24:41;;;;;;;8.30;2.22;;;19.10;99.90;;;;;;5011139;28;20022;-69
2022/09/09 10:27:46;;;;;;;5.82;2.95;;;19.20;99.90;;;;;;5011478;28;20033;-69
2022/09/09 10:30:22;;;;;;;7.32;3.35;;;19.30;99.90;;;;;;5010298;28;20021;-70
2022/09/09 10:33:09;;;;;;;6.90;4.18;;;19.40;99.90;;;;;;5011453;28;20058;-68
2022/09/09 10:35:41;;;;;;;7.15;3.40;;;19.50;99.90;;;;;;5010906;28;20080;-69
2022/09/09 10:38:13;;;;;;;;;;;19.50;99.90;;;;;;5011627;28;20061;-68
2022/09/09 10:40:59;;;;;;;3.83;2.25;;;19.60;99.90;;;;;;5008394;28;19916;-67
2022/09/09 10:43:56;;;;;;;8.02;3.33;;;19.70;99.90;;;;;;4992278;28;20117;-68
2022/09/09 10:46:41;;;;;;;10.05;3.00;;;20.00;99.90;;;;;;4996293;28;20029;-68
2022/09/09 10:49:23;;;;;;;4.55;2.85;;;20.20;99.90;;;;;;5011057;28;20042;-69
2022/09/09 10:52:07;;;;;;;;;;;20.30;99.90;;;;;;5010881;28;20026;-68
2022/09/09 10:54:51;;;;;;;5.35;4.05;;;20.60;99.90;;;;;;5002284;28;19964;-68
2022/09/09 10:57:17;;;;;;;4.57;3.22;;;20.60;99.90;;;;;;5007138;28;20041;-69
2022/09/09 10:59:50;;;;;;;3.40;3.10;;;20.70;99.90;;;;;;5014410;28;20388;-70
2022/09/09 11:02:26;;;;;;;4.30;3.28;;;20.90;99.90;;;;;;5002845;28;20026;-70
2022/09/09 11:05:33;;;;;;;5.43;2.08;;;21.10;99.90;;;;;;5024015;28;20021;-69
2022/09/09 11:08:23;;;;;;;6.78;2.78;;;21.20;99.90;;;;;;4981247;28;20061;-69
2022/09/09 11:10:55;;;;;;;3.72;2.53;;;21.40;99.90;;;;;;4993699;28;20030;-69
2022/09/09 11:13:46;;;;;;;1.80;1.70;;;21.40;99.90;;;;;;4994469;28;20018;-67
2022/09/09 11:16:17;;;;;;;2.53;2.03;;;21.50;99.90;;;;;;5010999;28;20088;-70
2022/09/09 11:18:45;;;;;;;5.28;2.83;;;21.70;99.90;;;;;;5003696;28;20029;-67
2022/09/09 11:21:26;;;;;;;5.00;2.80;;;21.90;99.90;;;;;;5006586;28;20080;-70
2022/09/09 11:24:29;;;;;;;5.45;2.72;;;22.00;99.90;;;;;;4997010;28;20019;-68
2022/09/09 11:27:12;;;;;;;8.05;2.67;;;21.90;99.90;;;;;;4957679;28;20066;-68
2022/09/09 11:30:00;;;;;;;2.60;1.80;;;22.10;99.90;;;;;;5005839;28;20445;-67
2022/09/09 11:32:54;;;;;;;3.75;2.03;;;22.20;99.90;;;;;;5010690;28;20076;-67
2022/09/09 11:35:34;;;;;;;2.75;2.15;;;22.30;99.90;;;;;;5013873;28;20021;-69
2022/09/09 11:38:15;;;;;;;3.70;2.15;;;22.40;99.90;;;;;;5010265;28;20026;-69
2022/09/09 11:40:41;;;;;;;3.38;2.47;;;22.50;99.90;;;;;;5007276;28;20105;-67
2022/09/09 11:43:21;;;;;;;4.90;1.70;;;22.60;99.90;;;;;;5015216;28;20515;-68
2022/09/09 11:46:00;;;;;;;5.57;3.13;;;22.70;99.90;;;;;;5020032;28;20034;-68
2022/09/09 11:48:29;;;;;;;5.88;2.70;;;22.80;99.90;;;;;;5000947;28;20563;-67
2022/09/09 11:51:07;;;;;;;4.28;2.15;;;23.10;99.90;;;;;;5013486;28;20506;-68
2022/09/09 11:53:34;;;;;;;3.25;1.85;;;23.20;99.90;;;;;;5014344;28;20034;-68
2022/09/09 11:56:13;;;;;;;4.65;2.65;;;23.50;99.90;;;;;;5012491;28;20100;-69
2022/09/09 11:59:02;;;;;;;4.50;3.13;;;23.70;99.90;;;;;;5010712;28;20029;-66
2022/09/09 12:01:56;;;;;;;5.70;2.47;;;24.00;99.90;;;;;;4973967;28;20042;-67
2022/09/09 12:04:28;;;;;;;4.35;2.22;;;24.20;99.90;;;;;;5032816;28;20545;-69
2022/09/09 12:07:02;;;;;;;3.28;1.80;;;24.20;99.90;;;;;;4994609;28;20032;-68
2022/09/09 12:09:43;;;;;;;5.55;2.40;;;24.30;99.90;;;;;;5017312;28;20036;-68
2022/09/09 12:12:11;;;;;;;4.68;2.22;;;24.40;99.90;;;;;;5021139;28;20467;-68
2022/09/09 12:14:56;;;;;;;2.65;2.10;;;24.60;99.90;;;;;;4993669;28;20042;-68
2022/09/09 12:17:24;;;;;;;5.20;3.33;;;24.50;99.90;;;;;;5012102;28;20036;-68
2022/09/09 12:20:09;;;;;;;6.47;2.03;;;24.40;99.90;;;;;;5020448;28;20068;-68
2022/09/09 12:22:50;;;;;;;3.38;1.33;;;24.40;99.90;;;;;;5021760;28;20108;-68
2022/09/09 12:25:35;;;;;;;7.45;2.17;;;24.40;99.90;;;;;;5004764;28;20045;-69
2022/09/09 12:28:06;;;;;;;4.30;1.95;;;24.40;99.90;;;;;;5019325;28;20088;-69
2022/09/09 12:30:57;;;;;;;10.02;2.67;;;24.60;99.90;;;;;;5019582;28;20109;-69
2022/09/09 12:33:24;;;;;;;3.22;1.52;;;24.70;99.90;;;;;;5012690;28;20121;-68
2022/09/09 12:35:56;;;;;;;6.47;3.13;;;24.70;99.90;;;;;;5016492;28;20387;-68
2022/09/09 12:38:34;;;;;;;4.63;3.00;;;24.60;99.90;;;;;;5012236;28;20400;-69
2022/09/09 12:41:00;;;;;;;4.03;1.92;;;24.70;99.90;;;;;;5018210;28;20048;-68
2022/09/09 12:43:27;;;;;;;5.50;1.17;;;24.70;99.90;;;;;;5019862;28;20030;-69
2022/09/09 12:46:36;;;;;;;4.07;2.17;;;24.60;99.90;;;;;;5024657;28;20034;-68
2022/09/09 12:49:03;;;;;;;6.32;2.53;;;24.60;99.90;;;;;;4994282;28;20102;-69
2022/09/09 12:51:31;;;;;;;3.13;1.70;;;24.60;99.90;;;;;;5002692;28;20037;-68
2022/09/09 12:53:58;;;;;;;4.18;1.80;;;24.70;99.90;;;;;;5012280;28;20022;-68
2022/09/09 12:56:27;;;;;;;2.85;1.65;;;24.70;99.90;;;;;;5012988;28;20132;-68
2022/09/09 12:58:55;;;;;;;4.57;2.13;;;24.70;99.90;;;;;;5023885;28;20028;-68
2022/09/09 13:01:26;;;;;;;3.28;1.85;;;24.70;99.90;;;;;;4993632;28;20038;-68
2022/09/09 13:03:53;;;;;;;7.78;2.20;;;24.90;99.90;;;;;;5019840;28;20025;-67
2022/09/09 13:06:24;;;;;;;7.90;2.10;;;25.20;99.90;;;;;;5017945;28;20029;-68
2022/09/09 13:08:51;;;;;;;;;;;25.20;99.90;;;;;;5018920;28;20038;-67
2022/09/09 13:11:22;;;;;;;3.33;1.63;;;25.10;99.90;;;;;;5019885;28;20008;-68
2022/09/09 13:13:53;;;;;;;4.40;2.15;;;25.00;99.90;;;;;;5011786;28;20482;-68
2022/09/09 13:16:25;;;;;;;7.18;2.40;;;24.90;99.90;;;;;;5008078;28;20064;-70
2022/09/09 13:18:51;;;;;;;;;;;24.80;99.90;;;;;;4995315;28;20033;-68
2022/09/09 13:21:18;;;;;;;3.42;1.98;;;24.80;99.90;;;;;;5010478;28;20436;-68